« Back
NWS Peachtree City, Ga » Text Product » MCN Terminal Aerodrome Forecast


Printer-friendly Version
Current Version              Previous Versions:   1  2  3  4  5  6  7  8  9  

Terminal Aerodrome Forecast

016
FTUS42 KFFC 221100
TAFMCN
TAF
KMCN 221137Z 2212/2312 28003KT P6SM SCT040
     FM221500 33005KT P6SM VCSH BKN040
      TEMPO 2215/2219 4SM -TSRA BKN030CB
     FM222200 34006KT P6SM FEW040 SCT250
     FM230000 03005KT P6SM SCT250
     FM230600 03004KT P6SM BKN050=



USA.gov is the U.S. government's official web portal to all federal, state and local government web resources and services.